Lemitar, NM (87823)

4:16 PM MST on December 07, 2016 (GMT -0700)
Community Road | | Change Station

Elev 4645 ft 34.20 °N, 106.91 °W | Updated 2 seconds ago

Mostly Cloudy
Mostly Cloudy
52.2 °F
Feels Like 52.2 °F
N
11.4
Wind Variable Wind from NNW
Gusts 11.4 mph

Today
High -- | Low -- °F
--% Chance of Precip.
Yesterday
High -- | Low -- °F
Precip. -- in
Pressure 30.02 in
Visibility 10.0 miles
Clouds Mostly Cloudy 7000 ft
Dew Point 26 °F
Humidity 36%
Rainfall 0.00 in
Snow Depth Not available.
7:00 AM 4:57 PM
First Quarter, 57% visible
METAR KONM 072255Z AUTO 02004G14KT 10SM BKN070 11/M05 A3002 RMK AO2 T01141047
Pressure 30.02 in
Visibility 10.0 miles
Clouds Mostly Cloudy 7000 ft
Dew Point 26 °F
Humidity 36%
Rainfall 0.00 in
Snow Depth Not available.
7:00 AM 4:57 PM
First Quarter, 57% visible
METAR KONM 072255Z AUTO 02004G14KT 10SM BKN070 11/M05 A3002 RMK AO2 T01141047

10-Day Weather Forecast

Almanac

Astronomy

Dec. 07, 2016 Rise Set
Actual Time
Civil Twilight
Nautical Twilight
Astronomical Twilight
Moon
Length of Visible Light
Length of Day
Tomorrow will be .
, % of the Moon is Illuminated

Today's Extremes

State Highs State Lows

Community

WunderPhotos

Upload Photos

1,956,216 photos uploaded!

WunderBlog® & News

Nearby

Air Quality

  Air Quality AQ Index Pollutant
Not available.

Snow Depth

Station Depth Elevation

Earthquake Activity

City Distance Mag. Time & Date
Minimum magnitude displayed is 2.5.

Coastal Water Temperatures

Place Temperature

Stations

Nearby Weather Stations

Station Location Temp. Windchill Dew Point Humidity Wind Precip. Elev Updated Type
                   

Watches & Warnings

There are currently no watches in effect.